sensor_id;sensor_type;location;lat;lon;timestamp;P1;durP1;ratioP1;P2;durP2;ratioP2
7501;SDS011;3792;47.740;7.606;2023-05-29T00:00:47;7.70;;;4.53;;
7501;SDS011;3792;47.740;7.606;2023-05-29T00:03:14;6.43;;;4.97;;
7501;SDS011;3792;47.740;7.606;2023-05-29T00:05:42;5.83;;;4.27;;
7501;SDS011;3792;47.740;7.606;2023-05-29T00:08:11;7.67;;;5.23;;
7501;SDS011;3792;47.740;7.606;2023-05-29T00:10:38;5.83;;;5.10;;
7501;SDS011;3792;47.740;7.606;2023-05-29T00:13:05;6.40;;;5.13;;
7501;SDS011;3792;47.740;7.606;2023-05-29T00:15:32;6.70;;;4.60;;
7501;SDS011;3792;47.740;7.606;2023-05-29T00:17:59;5.23;;;4.57;;
7501;SDS011;3792;47.740;7.606;2023-05-29T00:20:26;7.63;;;5.17;;
7501;SDS011;3792;47.740;7.606;2023-05-29T00:22:53;7.37;;;5.00;;
7501;SDS011;3792;47.740;7.606;2023-05-29T00:25:22;8.47;;;5.17;;
7501;SDS011;3792;47.740;7.606;2023-05-29T00:27:49;4.90;;;4.20;;
7501;SDS011;3792;47.740;7.606;2023-05-29T00:30:16;5.93;;;4.47;;
7501;SDS011;3792;47.740;7.606;2023-05-29T00:32:43;7.70;;;5.10;;
7501;SDS011;3792;47.740;7.606;2023-05-29T00:35:10;7.67;;;4.97;;
7501;SDS011;3792;47.740;7.606;2023-05-29T00:37:37;9.80;;;5.03;;
7501;SDS011;3792;47.740;7.606;2023-05-29T00:40:05;5.10;;;4.50;;
7501;SDS011;3792;47.740;7.606;2023-05-29T00:42:36;7.77;;;5.43;;
7501;SDS011;3792;47.740;7.606;2023-05-29T00:45:03;7.50;;;4.73;;
7501;SDS011;3792;47.740;7.606;2023-05-29T00:47:31;8.77;;;4.47;;
7501;SDS011;3792;47.740;7.606;2023-05-29T00:49:58;6.73;;;4.77;;
7501;SDS011;3792;47.740;7.606;2023-05-29T00:52:25;6.93;;;4.73;;
7501;SDS011;3792;47.740;7.606;2023-05-29T00:54:54;6.97;;;4.90;;
7501;SDS011;3792;47.740;7.606;2023-05-29T00:57:21;6.93;;;4.67;;
7501;SDS011;3792;47.740;7.606;2023-05-29T00:59:50;6.30;;;5.17;;
7501;SDS011;3792;47.740;7.606;2023-05-29T01:02:18;8.07;;;4.77;;
7501;SDS011;3792;47.740;7.606;2023-05-29T01:04:47;6.70;;;4.57;;
7501;SDS011;3792;47.740;7.606;2023-05-29T01:07:15;7.17;;;4.77;;
7501;SDS011;3792;47.740;7.606;2023-05-29T01:09:42;6.90;;;5.23;;
7501;SDS011;3792;47.740;7.606;2023-05-29T01:12:13;9.77;;;4.90;;
7501;SDS011;3792;47.740;7.606;2023-05-29T01:15:04;6.67;;;4.77;;
7501;SDS011;3792;47.740;7.606;2023-05-29T01:17:42;5.90;;;4.57;;
7501;SDS011;3792;47.740;7.606;2023-05-29T01:20:22;7.47;;;5.20;;
7501;SDS011;3792;47.740;7.606;2023-05-29T01:23:00;6.57;;;5.20;;
7501;SDS011;3792;47.740;7.606;2023-05-29T01:25:41;6.83;;;5.07;;
7501;SDS011;3792;47.740;7.606;2023-05-29T01:28:24;6.30;;;4.67;;
7501;SDS011;3792;47.740;7.606;2023-05-29T01:30:52;6.07;;;4.80;;
7501;SDS011;3792;47.740;7.606;2023-05-29T01:33:20;10.10;;;5.80;;
7501;SDS011;3792;47.740;7.606;2023-05-29T01:35:47;8.83;;;4.97;;
7501;SDS011;3792;47.740;7.606;2023-05-29T01:38:14;8.33;;;5.63;;
7501;SDS011;3792;47.740;7.606;2023-05-29T01:40:41;6.37;;;5.07;;
7501;SDS011;3792;47.740;7.606;2023-05-29T01:43:08;10.03;;;5.33;;
7501;SDS011;3792;47.740;7.606;2023-05-29T01:45:37;6.03;;;4.80;;
7501;SDS011;3792;47.740;7.606;2023-05-29T01:48:05;7.63;;;5.63;;
7501;SDS011;3792;47.740;7.606;2023-05-29T01:50:32;5.70;;;4.53;;
7501;SDS011;3792;47.740;7.606;2023-05-29T01:53:00;10.37;;;4.80;;
7501;SDS011;3792;47.740;7.606;2023-05-29T01:55:27;7.23;;;5.23;;
7501;SDS011;3792;47.740;7.606;2023-05-29T01:57:55;6.77;;;5.17;;
7501;SDS011;3792;47.740;7.606;2023-05-29T02:00:23;7.50;;;5.23;;
7501;SDS011;3792;47.740;7.606;2023-05-29T02:02:51;8.13;;;4.57;;
7501;SDS011;3792;47.740;7.606;2023-05-29T02:05:18;7.37;;;4.97;;
7501;SDS011;3792;47.740;7.606;2023-05-29T02:07:46;7.80;;;5.30;;
7501;SDS011;3792;47.740;7.606;2023-05-29T02:10:13;7.60;;;4.77;;
7501;SDS011;3792;47.740;7.606;2023-05-29T02:12:41;6.50;;;5.07;;
7501;SDS011;3792;47.740;7.606;2023-05-29T02:15:08;6.23;;;4.67;;
7501;SDS011;3792;47.740;7.606;2023-05-29T02:17:36;8.07;;;4.60;;
7501;SDS011;3792;47.740;7.606;2023-05-29T02:20:05;6.63;;;4.73;;
7501;SDS011;3792;47.740;7.606;2023-05-29T02:22:33;8.37;;;5.20;;
7501;SDS011;3792;47.740;7.606;2023-05-29T02:25:00;5.23;;;4.70;;
7501;SDS011;3792;47.740;7.606;2023-05-29T02:27:27;8.03;;;4.70;;
7501;SDS011;3792;47.740;7.606;2023-05-29T02:29:54;8.67;;;4.67;;
7501;SDS011;3792;47.740;7.606;2023-05-29T02:32:21;6.23;;;4.97;;
7501;SDS011;3792;47.740;7.606;2023-05-29T02:34:48;5.00;;;4.50;;
7501;SDS011;3792;47.740;7.606;2023-05-29T02:37:17;6.57;;;5.07;;
7501;SDS011;3792;47.740;7.606;2023-05-29T02:39:44;5.60;;;4.53;;
7501;SDS011;3792;47.740;7.606;2023-05-29T02:42:11;9.03;;;4.63;;
7501;SDS011;3792;47.740;7.606;2023-05-29T02:44:38;5.73;;;4.50;;
7501;SDS011;3792;47.740;7.606;2023-05-29T02:47:05;7.03;;;4.90;;
7501;SDS011;3792;47.740;7.606;2023-05-29T02:49:32;7.07;;;4.60;;
7501;SDS011;3792;47.740;7.606;2023-05-29T02:51:59;5.97;;;5.33;;
7501;SDS011;3792;47.740;7.606;2023-05-29T02:54:27;8.40;;;5.40;;
7501;SDS011;3792;47.740;7.606;2023-05-29T02:56:55;5.27;;;4.23;;
7501;SDS011;3792;47.740;7.606;2023-05-29T02:59:22;6.63;;;4.47;;
7501;SDS011;3792;47.740;7.606;2023-05-29T03:01:49;7.00;;;4.70;;
7501;SDS011;3792;47.740;7.606;2023-05-29T03:04:17;6.00;;;4.73;;
7501;SDS011;3792;47.740;7.606;2023-05-29T03:06:44;9.20;;;5.13;;
7501;SDS011;3792;47.740;7.606;2023-05-29T03:09:11;7.57;;;5.13;;
7501;SDS011;3792;47.740;7.606;2023-05-29T03:11:40;6.87;;;4.63;;
7501;SDS011;3792;47.740;7.606;2023-05-29T03:14:07;5.70;;;4.73;;
7501;SDS011;3792;47.740;7.606;2023-05-29T03:16:34;7.67;;;4.80;;
7501;SDS011;3792;47.740;7.606;2023-05-29T03:19:01;6.77;;;5.23;;
7501;SDS011;3792;47.740;7.606;2023-05-29T03:21:28;6.70;;;5.10;;
7501;SDS011;3792;47.740;7.606;2023-05-29T03:23:56;7.97;;;5.30;;
7501;SDS011;3792;47.740;7.606;2023-05-29T03:26:23;6.93;;;5.13;;
7501;SDS011;3792;47.740;7.606;2023-05-29T03:28:52;6.77;;;5.13;;
7501;SDS011;3792;47.740;7.606;2023-05-29T03:31:19;7.63;;;5.03;;
7501;SDS011;3792;47.740;7.606;2023-05-29T03:33:46;7.80;;;5.00;;
7501;SDS011;3792;47.740;7.606;2023-05-29T03:36:13;7.53;;;4.60;;
7501;SDS011;3792;47.740;7.606;2023-05-29T03:38:42;8.30;;;5.53;;
7501;SDS011;3792;47.740;7.606;2023-05-29T03:41:09;8.53;;;5.17;;
7501;SDS011;3792;47.740;7.606;2023-05-29T03:43:36;6.57;;;5.30;;
7501;SDS011;3792;47.740;7.606;2023-05-29T03:46:04;7.03;;;4.73;;
7501;SDS011;3792;47.740;7.606;2023-05-29T03:48:31;6.70;;;4.87;;
7501;SDS011;3792;47.740;7.606;2023-05-29T03:50:58;7.70;;;5.17;;
7501;SDS011;3792;47.740;7.606;2023-05-29T03:53:25;7.00;;;4.73;;
7501;SDS011;3792;47.740;7.606;2023-05-29T03:55:53;6.97;;;5.13;;
7501;SDS011;3792;47.740;7.606;2023-05-29T03:58:20;6.53;;;4.70;;
7501;SDS011;3792;47.740;7.606;2023-05-29T04:00:47;5.10;;;4.60;;
7501;SDS011;3792;47.740;7.606;2023-05-29T04:03:15;5.77;;;4.27;;
7501;SDS011;3792;47.740;7.606;2023-05-29T04:05:42;6.47;;;4.43;;
7501;SDS011;3792;47.740;7.606;2023-05-29T04:08:09;5.67;;;4.60;;
7501;SDS011;3792;47.740;7.606;2023-05-29T04:10:38;7.70;;;4.53;;
7501;SDS011;3792;47.740;7.606;2023-05-29T04:13:05;6.20;;;4.83;;
7501;SDS011;3792;47.740;7.606;2023-05-29T04:15:32;8.27;;;5.27;;
7501;SDS011;3792;47.740;7.606;2023-05-29T04:17:59;7.30;;;4.63;;
7501;SDS011;3792;47.740;7.606;2023-05-29T04:20:28;7.40;;;5.17;;
7501;SDS011;3792;47.740;7.606;2023-05-29T04:22:55;6.30;;;4.60;;
7501;SDS011;3792;47.740;7.606;2023-05-29T04:25:22;7.47;;;4.90;;
7501;SDS011;3792;47.740;7.606;2023-05-29T04:27:49;8.20;;;5.90;;
7501;SDS011;3792;47.740;7.606;2023-05-29T04:30:16;5.93;;;4.50;;
7501;SDS011;3792;47.740;7.606;2023-05-29T04:32:43;7.87;;;5.00;;
7501;SDS011;3792;47.740;7.606;2023-05-29T04:35:11;8.97;;;5.40;;
7501;SDS011;3792;47.740;7.606;2023-05-29T04:37:40;7.93;;;4.57;;
7501;SDS011;3792;47.740;7.606;2023-05-29T04:40:09;7.57;;;4.83;;
7501;SDS011;3792;47.740;7.606;2023-05-29T04:42:36;6.07;;;4.80;;
7501;SDS011;3792;47.740;7.606;2023-05-29T04:45:05;6.40;;;4.60;;
7501;SDS011;3792;47.740;7.606;2023-05-29T04:47:35;5.87;;;4.60;;
7501;SDS011;3792;47.740;7.606;2023-05-29T04:50:09;7.03;;;4.63;;
7501;SDS011;3792;47.740;7.606;2023-05-29T04:52:36;6.67;;;5.10;;
7501;SDS011;3792;47.740;7.606;2023-05-29T04:55:05;5.67;;;4.67;;
7501;SDS011;3792;47.740;7.606;2023-05-29T04:57:32;8.83;;;4.63;;
7501;SDS011;3792;47.740;7.606;2023-05-29T04:59:59;9.63;;;5.47;;
7501;SDS011;3792;47.740;7.606;2023-05-29T05:02:30;7.93;;;4.80;;
7501;SDS011;3792;47.740;7.606;2023-05-29T05:04:57;6.77;;;4.90;;
7501;SDS011;3792;47.740;7.606;2023-05-29T05:07:25;6.53;;;4.73;;
7501;SDS011;3792;47.740;7.606;2023-05-29T05:09:52;6.23;;;4.77;;
7501;SDS011;3792;47.740;7.606;2023-05-29T05:12:20;7.90;;;4.97;;
7501;SDS011;3792;47.740;7.606;2023-05-29T05:14:47;8.13;;;5.40;;
7501;SDS011;3792;47.740;7.606;2023-05-29T05:17:14;6.47;;;4.80;;
7501;SDS011;3792;47.740;7.606;2023-05-29T05:19:42;8.37;;;5.20;;
7501;SDS011;3792;47.740;7.606;2023-05-29T05:22:09;6.50;;;5.13;;
7501;SDS011;3792;47.740;7.606;2023-05-29T05:24:36;5.97;;;4.50;;
7501;SDS011;3792;47.740;7.606;2023-05-29T05:27:03;6.57;;;4.97;;
7501;SDS011;3792;47.740;7.606;2023-05-29T05:29:32;6.57;;;4.63;;
7501;SDS011;3792;47.740;7.606;2023-05-29T05:31:59;8.40;;;5.57;;
7501;SDS011;3792;47.740;7.606;2023-05-29T05:34:26;7.30;;;5.20;;
7501;SDS011;3792;47.740;7.606;2023-05-29T05:36:53;11.20;;;5.93;;
7501;SDS011;3792;47.740;7.606;2023-05-29T05:39:20;8.33;;;5.23;;
7501;SDS011;3792;47.740;7.606;2023-05-29T05:41:47;6.33;;;4.70;;
7501;SDS011;3792;47.740;7.606;2023-05-29T05:44:14;5.90;;;4.73;;
7501;SDS011;3792;47.740;7.606;2023-05-29T05:46:42;6.73;;;4.67;;
7501;SDS011;3792;47.740;7.606;2023-05-29T05:49:10;8.10;;;5.20;;
7501;SDS011;3792;47.740;7.606;2023-05-29T05:51:37;8.37;;;5.33;;
7501;SDS011;3792;47.740;7.606;2023-05-29T05:54:04;8.90;;;5.27;;
7501;SDS011;3792;47.740;7.606;2023-05-29T05:56:31;9.57;;;5.70;;
7501;SDS011;3792;47.740;7.606;2023-05-29T05:58:58;7.13;;;5.07;;
7501;SDS011;3792;47.740;7.606;2023-05-29T06:01:26;8.63;;;4.90;;
7501;SDS011;3792;47.740;7.606;2023-05-29T06:03:55;7.67;;;4.57;;
7501;SDS011;3792;47.740;7.606;2023-05-29T06:06:22;5.67;;;5.00;;
7501;SDS011;3792;47.740;7.606;2023-05-29T06:08:49;7.37;;;5.47;;
7501;SDS011;3792;47.740;7.606;2023-05-29T06:11:16;6.30;;;5.03;;
7501;SDS011;3792;47.740;7.606;2023-05-29T06:13:43;7.97;;;4.93;;
7501;SDS011;3792;47.740;7.606;2023-05-29T06:16:10;6.57;;;5.33;;
7501;SDS011;3792;47.740;7.606;2023-05-29T06:18:38;7.90;;;5.43;;
7501;SDS011;3792;47.740;7.606;2023-05-29T06:21:07;7.03;;;5.43;;
7501;SDS011;3792;47.740;7.606;2023-05-29T06:23:34;7.03;;;4.90;;
7501;SDS011;3792;47.740;7.606;2023-05-29T06:26:02;7.83;;;5.87;;
7501;SDS011;3792;47.740;7.606;2023-05-29T06:28:29;12.30;;;6.60;;
7501;SDS011;3792;47.740;7.606;2023-05-29T06:30:56;8.40;;;5.57;;
7501;SDS011;3792;47.740;7.606;2023-05-29T06:33:23;10.07;;;6.47;;
7501;SDS011;3792;47.740;7.606;2023-05-29T06:35:50;7.53;;;6.10;;
7501;SDS011;3792;47.740;7.606;2023-05-29T06:38:19;11.47;;;7.70;;
7501;SDS011;3792;47.740;7.606;2023-05-29T06:40:46;11.77;;;7.07;;
7501;SDS011;3792;47.740;7.606;2023-05-29T06:43:13;11.30;;;7.60;;
7501;SDS011;3792;47.740;7.606;2023-05-29T06:45:40;11.57;;;6.90;;
7501;SDS011;3792;47.740;7.606;2023-05-29T06:48:07;8.93;;;6.50;;
7501;SDS011;3792;47.740;7.606;2023-05-29T06:50:35;11.67;;;6.30;;
7501;SDS011;3792;47.740;7.606;2023-05-29T06:53:02;10.83;;;7.00;;
7501;SDS011;3792;47.740;7.606;2023-05-29T06:55:30;9.07;;;6.33;;
7501;SDS011;3792;47.740;7.606;2023-05-29T06:57:58;9.90;;;7.50;;
7501;SDS011;3792;47.740;7.606;2023-05-29T07:00:25;11.97;;;7.27;;
7501;SDS011;3792;47.740;7.606;2023-05-29T07:02:52;11.00;;;6.53;;
7501;SDS011;3792;47.740;7.606;2023-05-29T07:05:19;10.67;;;6.80;;
7501;SDS011;3792;47.740;7.606;2023-05-29T07:07:46;11.60;;;7.10;;
7501;SDS011;3792;47.740;7.606;2023-05-29T07:10:14;10.63;;;6.93;;
7501;SDS011;3792;47.740;7.606;2023-05-29T07:12:43;8.50;;;6.47;;
7501;SDS011;3792;47.740;7.606;2023-05-29T07:15:10;13.87;;;6.50;;
7501;SDS011;3792;47.740;7.606;2023-05-29T07:17:37;9.37;;;7.10;;
7501;SDS011;3792;47.740;7.606;2023-05-29T07:20:04;11.70;;;6.80;;
7501;SDS011;3792;47.740;7.606;2023-05-29T07:22:33;9.40;;;6.50;;
7501;SDS011;3792;47.740;7.606;2023-05-29T07:25:01;10.90;;;6.90;;
7501;SDS011;3792;47.740;7.606;2023-05-29T07:27:29;8.97;;;6.80;;
7501;SDS011;3792;47.740;7.606;2023-05-29T07:29:57;9.87;;;6.90;;
7501;SDS011;3792;47.740;7.606;2023-05-29T07:32:24;11.10;;;6.93;;
7501;SDS011;3792;47.740;7.606;2023-05-29T07:34:51;13.13;;;7.00;;
7501;SDS011;3792;47.740;7.606;2023-05-29T07:37:18;10.37;;;7.43;;
7501;SDS011;3792;47.740;7.606;2023-05-29T07:39:45;9.43;;;6.80;;
7501;SDS011;3792;47.740;7.606;2023-05-29T07:42:12;14.60;;;6.63;;
7501;SDS011;3792;47.740;7.606;2023-05-29T07:44:40;12.80;;;7.23;;
7501;SDS011;3792;47.740;7.606;2023-05-29T07:47:09;10.40;;;6.40;;
7501;SDS011;3792;47.740;7.606;2023-05-29T07:49:36;11.17;;;6.63;;
7501;SDS011;3792;47.740;7.606;2023-05-29T07:52:03;11.80;;;7.73;;
7501;SDS011;3792;47.740;7.606;2023-05-29T07:54:31;10.03;;;7.13;;
7501;SDS011;3792;47.740;7.606;2023-05-29T07:56:58;11.17;;;6.67;;
7501;SDS011;3792;47.740;7.606;2023-05-29T07:59:27;8.27;;;6.70;;
7501;SDS011;3792;47.740;7.606;2023-05-29T08:01:55;11.10;;;6.10;;
7501;SDS011;3792;47.740;7.606;2023-05-29T08:04:24;8.13;;;5.93;;
7501;SDS011;3792;47.740;7.606;2023-05-29T08:06:51;7.17;;;6.47;;
7501;SDS011;3792;47.740;7.606;2023-05-29T08:09:20;8.93;;;6.07;;
7501;SDS011;3792;47.740;7.606;2023-05-29T08:11:47;11.90;;;6.60;;
7501;SDS011;3792;47.740;7.606;2023-05-29T08:14:14;9.60;;;6.43;;
7501;SDS011;3792;47.740;7.606;2023-05-29T08:16:41;10.27;;;6.17;;
7501;SDS011;3792;47.740;7.606;2023-05-29T08:19:08;8.87;;;6.00;;
7501;SDS011;3792;47.740;7.606;2023-05-29T08:21:37;9.50;;;5.90;;
7501;SDS011;3792;47.740;7.606;2023-05-29T08:24:04;10.57;;;5.87;;
7501;SDS011;3792;47.740;7.606;2023-05-29T08:26:32;8.60;;;6.17;;
7501;SDS011;3792;47.740;7.606;2023-05-29T08:28:59;8.93;;;5.50;;
7501;SDS011;3792;47.740;7.606;2023-05-29T08:31:26;8.47;;;5.97;;
7501;SDS011;3792;47.740;7.606;2023-05-29T08:33:53;10.80;;;6.20;;
7501;SDS011;3792;47.740;7.606;2023-05-29T08:36:21;10.43;;;6.70;;
7501;SDS011;3792;47.740;7.606;2023-05-29T08:38:49;9.20;;;5.93;;
7501;SDS011;3792;47.740;7.606;2023-05-29T08:41:17;10.93;;;6.07;;
7501;SDS011;3792;47.740;7.606;2023-05-29T08:43:48;10.83;;;5.77;;
7501;SDS011;3792;47.740;7.606;2023-05-29T08:46:16;13.00;;;5.33;;
7501;SDS011;3792;47.740;7.606;2023-05-29T08:48:47;10.07;;;5.33;;
7501;SDS011;3792;47.740;7.606;2023-05-29T08:51:16;8.57;;;5.23;;
7501;SDS011;3792;47.740;7.606;2023-05-29T08:53:46;8.40;;;5.80;;
7501;SDS011;3792;47.740;7.606;2023-05-29T08:56:15;6.80;;;5.00;;
7501;SDS011;3792;47.740;7.606;2023-05-29T08:58:42;6.40;;;5.50;;
7501;SDS011;3792;47.740;7.606;2023-05-29T09:01:11;8.40;;;4.73;;
7501;SDS011;3792;47.740;7.606;2023-05-29T09:03:38;6.57;;;5.23;;
7501;SDS011;3792;47.740;7.606;2023-05-29T09:06:06;7.30;;;4.97;;
7501;SDS011;3792;47.740;7.606;2023-05-29T09:08:34;8.60;;;5.77;;
7501;SDS011;3792;47.740;7.606;2023-05-29T09:11:02;8.17;;;5.70;;
7501;SDS011;3792;47.740;7.606;2023-05-29T09:13:30;9.20;;;6.37;;
7501;SDS011;3792;47.740;7.606;2023-05-29T09:16:01;7.33;;;5.53;;
7501;SDS011;3792;47.740;7.606;2023-05-29T09:18:29;10.47;;;5.37;;
7501;SDS011;3792;47.740;7.606;2023-05-29T09:20:57;6.30;;;4.73;;
7501;SDS011;3792;47.740;7.606;2023-05-29T09:23:25;9.10;;;6.00;;
7501;SDS011;3792;47.740;7.606;2023-05-29T09:25:52;6.67;;;5.03;;
7501;SDS011;3792;47.740;7.606;2023-05-29T09:28:20;8.33;;;5.40;;
7501;SDS011;3792;47.740;7.606;2023-05-29T09:30:50;8.87;;;5.37;;
7501;SDS011;3792;47.740;7.606;2023-05-29T09:33:17;8.23;;;5.07;;
7501;SDS011;3792;47.740;7.606;2023-05-29T09:35:44;9.83;;;5.37;;
7501;SDS011;3792;47.740;7.606;2023-05-29T09:38:13;7.40;;;5.03;;
7501;SDS011;3792;47.740;7.606;2023-05-29T09:40:41;6.43;;;4.87;;
7501;SDS011;3792;47.740;7.606;2023-05-29T09:43:11;8.77;;;5.33;;
7501;SDS011;3792;47.740;7.606;2023-05-29T09:45:39;10.13;;;5.33;;
7501;SDS011;3792;47.740;7.606;2023-05-29T09:48:11;7.13;;;5.10;;
7501;SDS011;3792;47.740;7.606;2023-05-29T09:50:39;6.57;;;5.13;;
7501;SDS011;3792;47.740;7.606;2023-05-29T09:53:16;8.17;;;5.27;;
7501;SDS011;3792;47.740;7.606;2023-05-29T09:55:46;7.33;;;4.67;;
7501;SDS011;3792;47.740;7.606;2023-05-29T09:58:14;6.67;;;5.10;;
7501;SDS011;3792;47.740;7.606;2023-05-29T10:00:42;8.50;;;4.67;;
7501;SDS011;3792;47.740;7.606;2023-05-29T10:03:11;7.77;;;4.90;;
7501;SDS011;3792;47.740;7.606;2023-05-29T10:05:38;6.93;;;5.17;;
7501;SDS011;3792;47.740;7.606;2023-05-29T10:08:05;6.40;;;5.47;;
7501;SDS011;3792;47.740;7.606;2023-05-29T10:10:34;8.00;;;5.03;;
7501;SDS011;3792;47.740;7.606;2023-05-29T10:13:04;6.23;;;4.93;;
7501;SDS011;3792;47.740;7.606;2023-05-29T10:15:32;6.87;;;4.70;;
7501;SDS011;3792;47.740;7.606;2023-05-29T10:18:02;9.67;;;5.53;;
7501;SDS011;3792;47.740;7.606;2023-05-29T10:20:31;9.30;;;5.53;;
7501;SDS011;3792;47.740;7.606;2023-05-29T10:23:00;6.37;;;4.80;;
7501;SDS011;3792;47.740;7.606;2023-05-29T10:25:29;5.07;;;4.50;;
7501;SDS011;3792;47.740;7.606;2023-05-29T10:27:58;4.97;;;4.47;;
7501;SDS011;3792;47.740;7.606;2023-05-29T10:30:28;7.00;;;4.60;;
7501;SDS011;3792;47.740;7.606;2023-05-29T10:33:09;6.07;;;4.90;;
7501;SDS011;3792;47.740;7.606;2023-05-29T10:35:51;5.90;;;4.57;;
7501;SDS011;3792;47.740;7.606;2023-05-29T10:38:24;8.63;;;4.37;;
7501;SDS011;3792;47.740;7.606;2023-05-29T10:40:52;8.30;;;4.67;;
7501;SDS011;3792;47.740;7.606;2023-05-29T10:43:29;5.80;;;4.63;;
7501;SDS011;3792;47.740;7.606;2023-05-29T10:45:57;6.40;;;4.67;;
7501;SDS011;3792;47.740;7.606;2023-05-29T10:48:37;10.27;;;5.13;;
7501;SDS011;3792;47.740;7.606;2023-05-29T10:51:07;6.50;;;4.50;;
7501;SDS011;3792;47.740;7.606;2023-05-29T10:53:35;5.33;;;4.83;;
7501;SDS011;3792;47.740;7.606;2023-05-29T10:56:12;7.67;;;4.60;;
7501;SDS011;3792;47.740;7.606;2023-05-29T10:58:49;8.40;;;4.93;;
7501;SDS011;3792;47.740;7.606;2023-05-29T11:01:20;6.87;;;4.77;;
7501;SDS011;3792;47.740;7.606;2023-05-29T11:03:48;5.57;;;4.57;;
7501;SDS011;3792;47.740;7.606;2023-05-29T11:06:20;8.10;;;4.27;;
7501;SDS011;3792;47.740;7.606;2023-05-29T11:08:52;5.60;;;4.37;;
7501;SDS011;3792;47.740;7.606;2023-05-29T11:11:28;6.33;;;4.57;;
7501;SDS011;3792;47.740;7.606;2023-05-29T11:14:00;4.70;;;4.30;;
7501;SDS011;3792;47.740;7.606;2023-05-29T11:16:36;5.53;;;4.63;;
7501;SDS011;3792;47.740;7.606;2023-05-29T11:19:04;4.93;;;4.37;;
7501;SDS011;3792;47.740;7.606;2023-05-29T11:21:34;10.53;;;4.80;;
7501;SDS011;3792;47.740;7.606;2023-05-29T11:24:19;5.60;;;4.40;;
7501;SDS011;3792;47.740;7.606;2023-05-29T11:26:50;4.97;;;4.47;;
7501;SDS011;3792;47.740;7.606;2023-05-29T11:29:20;6.30;;;4.60;;
7501;SDS011;3792;47.740;7.606;2023-05-29T11:31:48;6.93;;;4.77;;
7501;SDS011;3792;47.740;7.606;2023-05-29T11:34:22;8.50;;;4.70;;
7501;SDS011;3792;47.740;7.606;2023-05-29T11:36:52;6.07;;;4.70;;
7501;SDS011;3792;47.740;7.606;2023-05-29T11:39:19;7.23;;;4.40;;
7501;SDS011;3792;47.740;7.606;2023-05-29T11:41:50;7.43;;;4.80;;
7501;SDS011;3792;47.740;7.606;2023-05-29T11:44:18;5.30;;;4.63;;
7501;SDS011;3792;47.740;7.606;2023-05-29T11:46:45;5.90;;;4.67;;
7501;SDS011;3792;47.740;7.606;2023-05-29T11:49:12;5.03;;;4.50;;
7501;SDS011;3792;47.740;7.606;2023-05-29T11:51:41;6.77;;;4.63;;
7501;SDS011;3792;47.740;7.606;2023-05-29T11:54:12;4.77;;;4.10;;
7501;SDS011;3792;47.740;7.606;2023-05-29T11:56:39;5.57;;;4.80;;
7501;SDS011;3792;47.740;7.606;2023-05-29T11:59:10;5.33;;;4.50;;
7501;SDS011;3792;47.740;7.606;2023-05-29T12:01:37;6.17;;;4.60;;
7501;SDS011;3792;47.740;7.606;2023-05-29T12:04:13;5.53;;;4.80;;
7501;SDS011;3792;47.740;7.606;2023-05-29T12:06:41;6.67;;;4.67;;
7501;SDS011;3792;47.740;7.606;2023-05-29T12:09:09;6.23;;;4.67;;
7501;SDS011;3792;47.740;7.606;2023-05-29T12:11:54;7.87;;;4.37;;
7501;SDS011;3792;47.740;7.606;2023-05-29T12:14:27;7.13;;;4.37;;
7501;SDS011;3792;47.740;7.606;2023-05-29T12:16:55;6.73;;;4.47;;
7501;SDS011;3792;47.740;7.606;2023-05-29T12:19:23;4.70;;;3.90;;
7501;SDS011;3792;47.740;7.606;2023-05-29T12:21:56;6.70;;;4.10;;
7501;SDS011;3792;47.740;7.606;2023-05-29T12:24:25;6.47;;;4.57;;
7501;SDS011;3792;47.740;7.606;2023-05-29T12:26:53;4.60;;;4.17;;
7501;SDS011;3792;47.740;7.606;2023-05-29T12:29:29;6.50;;;4.60;;
7501;SDS011;3792;47.740;7.606;2023-05-29T12:31:57;5.50;;;4.30;;
7501;SDS011;3792;47.740;7.606;2023-05-29T12:34:24;7.60;;;4.70;;
7501;SDS011;3792;47.740;7.606;2023-05-29T12:36:52;6.03;;;4.40;;
7501;SDS011;3792;47.740;7.606;2023-05-29T12:39:19;8.87;;;5.37;;
7501;SDS011;3792;47.740;7.606;2023-05-29T12:41:48;7.17;;;4.77;;
7501;SDS011;3792;47.740;7.606;2023-05-29T12:44:15;6.57;;;4.53;;
7501;SDS011;3792;47.740;7.606;2023-05-29T12:46:45;7.20;;;4.30;;
7501;SDS011;3792;47.740;7.606;2023-05-29T12:49:12;6.70;;;4.43;;
7501;SDS011;3792;47.740;7.606;2023-05-29T12:51:40;5.77;;;4.20;;
7501;SDS011;3792;47.740;7.606;2023-05-29T12:54:09;5.00;;;4.30;;
7501;SDS011;3792;47.740;7.606;2023-05-29T12:56:36;4.90;;;4.40;;
7501;SDS011;3792;47.740;7.606;2023-05-29T12:59:06;5.40;;;4.70;;
7501;SDS011;3792;47.740;7.606;2023-05-29T13:01:34;8.57;;;4.57;;
7501;SDS011;3792;47.740;7.606;2023-05-29T13:04:02;9.90;;;5.27;;
7501;SDS011;3792;47.740;7.606;2023-05-29T13:06:31;5.67;;;4.47;;
7501;SDS011;3792;47.740;7.606;2023-05-29T13:08:59;11.23;;;4.70;;
7501;SDS011;3792;47.740;7.606;2023-05-29T13:11:26;5.97;;;4.63;;
7501;SDS011;3792;47.740;7.606;2023-05-29T13:13:53;6.63;;;4.93;;
7501;SDS011;3792;47.740;7.606;2023-05-29T13:16:21;6.20;;;4.50;;
7501;SDS011;3792;47.740;7.606;2023-05-29T13:18:48;8.20;;;4.73;;
7501;SDS011;3792;47.740;7.606;2023-05-29T13:21:15;6.37;;;4.70;;
7501;SDS011;3792;47.740;7.606;2023-05-29T13:23:42;6.50;;;4.63;;
7501;SDS011;3792;47.740;7.606;2023-05-29T13:26:09;5.43;;;4.27;;
7501;SDS011;3792;47.740;7.606;2023-05-29T13:28:37;5.53;;;4.30;;
7501;SDS011;3792;47.740;7.606;2023-05-29T13:31:04;5.07;;;4.57;;
7501;SDS011;3792;47.740;7.606;2023-05-29T13:33:32;6.43;;;5.10;;
7501;SDS011;3792;47.740;7.606;2023-05-29T13:36:00;6.43;;;4.80;;
7501;SDS011;3792;47.740;7.606;2023-05-29T13:38:27;5.57;;;4.93;;
7501;SDS011;3792;47.740;7.606;2023-05-29T13:40:54;5.37;;;4.53;;
7501;SDS011;3792;47.740;7.606;2023-05-29T13:43:21;6.87;;;4.70;;
7501;SDS011;3792;47.740;7.606;2023-05-29T13:45:48;7.93;;;4.70;;
7501;SDS011;3792;47.740;7.606;2023-05-29T13:48:15;6.10;;;4.50;;
7501;SDS011;3792;47.740;7.606;2023-05-29T13:50:43;6.67;;;5.23;;
7501;SDS011;3792;47.740;7.606;2023-05-29T13:53:10;5.10;;;3.93;;
7501;SDS011;3792;47.740;7.606;2023-05-29T13:55:38;5.23;;;4.73;;
7501;SDS011;3792;47.740;7.606;2023-05-29T13:58:05;5.70;;;4.40;;
7501;SDS011;3792;47.740;7.606;2023-05-29T14:00:32;6.50;;;4.67;;
7501;SDS011;3792;47.740;7.606;2023-05-29T14:02:59;7.97;;;4.50;;
7501;SDS011;3792;47.740;7.606;2023-05-29T14:05:26;8.50;;;4.63;;
7501;SDS011;3792;47.740;7.606;2023-05-29T14:07:55;5.03;;;4.30;;
7501;SDS011;3792;47.740;7.606;2023-05-29T14:10:22;5.93;;;4.83;;
7501;SDS011;3792;47.740;7.606;2023-05-29T14:12:49;5.53;;;4.63;;
7501;SDS011;3792;47.740;7.606;2023-05-29T14:15:16;6.47;;;4.83;;
7501;SDS011;3792;47.740;7.606;2023-05-29T14:17:45;6.03;;;4.47;;
7501;SDS011;3792;47.740;7.606;2023-05-29T14:20:13;6.20;;;4.90;;
7501;SDS011;3792;47.740;7.606;2023-05-29T14:22:40;5.30;;;4.50;;
7501;SDS011;3792;47.740;7.606;2023-05-29T14:25:09;8.07;;;4.70;;
7501;SDS011;3792;47.740;7.606;2023-05-29T14:27:36;6.43;;;4.43;;
7501;SDS011;3792;47.740;7.606;2023-05-29T14:30:03;6.40;;;4.87;;
7501;SDS011;3792;47.740;7.606;2023-05-29T14:32:31;7.20;;;4.80;;
7501;SDS011;3792;47.740;7.606;2023-05-29T14:34:59;5.40;;;4.23;;
7501;SDS011;3792;47.740;7.606;2023-05-29T14:37:26;5.60;;;4.07;;
7501;SDS011;3792;47.740;7.606;2023-05-29T14:39:53;6.83;;;5.07;;
7501;SDS011;3792;47.740;7.606;2023-05-29T14:42:21;6.00;;;4.33;;
7501;SDS011;3792;47.740;7.606;2023-05-29T14:44:48;5.70;;;4.53;;
7501;SDS011;3792;47.740;7.606;2023-05-29T14:47:15;7.93;;;4.60;;
7501;SDS011;3792;47.740;7.606;2023-05-29T14:49:43;7.40;;;4.50;;
7501;SDS011;3792;47.740;7.606;2023-05-29T14:52:10;5.60;;;4.50;;
7501;SDS011;3792;47.740;7.606;2023-05-29T14:54:37;7.67;;;4.83;;
7501;SDS011;3792;47.740;7.606;2023-05-29T14:57:05;6.80;;;4.80;;
7501;SDS011;3792;47.740;7.606;2023-05-29T14:59:33;6.93;;;4.60;;
7501;SDS011;3792;47.740;7.606;2023-05-29T15:02:00;5.70;;;4.57;;
7501;SDS011;3792;47.740;7.606;2023-05-29T15:04:27;7.27;;;4.53;;
7501;SDS011;3792;47.740;7.606;2023-05-29T15:06:54;5.87;;;4.60;;
7501;SDS011;3792;47.740;7.606;2023-05-29T15:09:22;6.93;;;5.00;;
7501;SDS011;3792;47.740;7.606;2023-05-29T15:11:49;5.83;;;4.57;;
7501;SDS011;3792;47.740;7.606;2023-05-29T15:14:16;6.13;;;4.80;;
7501;SDS011;3792;47.740;7.606;2023-05-29T15:16:45;6.67;;;4.83;;
7501;SDS011;3792;47.740;7.606;2023-05-29T15:19:12;6.93;;;4.50;;
7501;SDS011;3792;47.740;7.606;2023-05-29T15:21:39;8.93;;;4.57;;